createdAt,value
2023-05-15T00:00:52.455Z,75.50
2023-05-15T00:03:21.321Z,75.70
2023-05-15T00:05:49.954Z,75.20
2023-05-15T00:08:18.003Z,75.10
2023-05-15T00:10:57.554Z,75.20
2023-05-15T00:13:29.034Z,75.10
2023-05-15T00:15:58.357Z,75.10
2023-05-15T00:18:26.236Z,75.30
2023-05-15T00:20:54.164Z,76.20
2023-05-15T00:23:21.943Z,76.40
2023-05-15T00:25:50.757Z,76.30
2023-05-15T00:28:18.602Z,75.30
2023-05-15T00:30:46.539Z,76.10
2023-05-15T00:33:15.670Z,75.90
2023-05-15T00:35:43.625Z,76.10
2023-05-15T00:38:11.585Z,76.00
2023-05-15T00:40:40.587Z,74.80
2023-05-15T00:43:10.643Z,76.20
2023-05-15T00:45:41.588Z,76.50
2023-05-15T00:48:11.559Z,76.30
2023-05-15T00:50:42.460Z,76.40
2023-05-15T00:53:10.886Z,76.60
2023-05-15T00:55:39.302Z,76.40
2023-05-15T00:58:08.885Z,76.50
2023-05-15T01:00:37.407Z,77.30
2023-05-15T01:03:06.553Z,76.60
2023-05-15T01:05:34.486Z,76.90
2023-05-15T01:08:14.097Z,76.70
2023-05-15T01:10:43.943Z,77.30
2023-05-15T01:13:14.973Z,77.00
2023-05-15T01:15:43.159Z,76.90
2023-05-15T01:18:11.142Z,76.60
2023-05-15T01:20:51.041Z,76.90
2023-05-15T01:23:26.958Z,77.40
2023-05-15T01:26:45.609Z,77.40
2023-05-15T01:29:21.909Z,77.80
2023-05-15T01:31:55.224Z,77.40
2023-05-15T01:34:30.420Z,77.90
2023-05-15T01:37:03.972Z,77.40
2023-05-15T01:39:34.773Z,77.70
2023-05-15T01:42:08.602Z,77.70
2023-05-15T01:44:42.245Z,77.80
2023-05-15T01:47:14.649Z,77.70
2023-05-15T01:49:44.119Z,76.50
2023-05-15T01:52:17.753Z,77.60
2023-05-15T01:54:46.948Z,77.90
2023-05-15T01:57:16.608Z,77.70
2023-05-15T01:59:46.926Z,77.70
2023-05-15T02:02:16.399Z,77.80
2023-05-15T02:04:45.691Z,78.70
2023-05-15T02:07:14.815Z,78.00
2023-05-15T02:09:43.422Z,78.30
2023-05-15T02:12:12.611Z,78.30
2023-05-15T02:14:42.323Z,80.20
2023-05-15T02:17:11.650Z,80.50
2023-05-15T02:19:39.526Z,80.50
2023-05-15T02:22:07.439Z,80.00
2023-05-15T02:24:35.385Z,79.80
2023-05-15T02:27:10.495Z,79.70
2023-05-15T02:29:43.895Z,80.10
2023-05-15T02:32:16.540Z,79.90
2023-05-15T02:34:54.720Z,80.10
2023-05-15T02:37:28.218Z,80.20
2023-05-15T02:39:59.614Z,80.20
2023-05-15T02:42:28.787Z,80.20
2023-05-15T02:44:58.257Z,80.40
2023-05-15T02:47:28.629Z,80.30
2023-05-15T02:49:57.662Z,80.60
2023-05-15T02:52:25.849Z,80.50
2023-05-15T02:54:54.280Z,80.50
2023-05-15T02:57:22.129Z,80.70
2023-05-15T02:59:50.535Z,80.80
2023-05-15T03:02:18.397Z,80.60
2023-05-15T03:04:48.135Z,80.90
2023-05-15T03:07:16.107Z,80.70
2023-05-15T03:09:43.914Z,81.00
2023-05-15T03:12:12.126Z,81.40
2023-05-15T03:14:39.943Z,81.00
2023-05-15T03:17:07.817Z,80.80
2023-05-15T03:19:36.011Z,80.90
2023-05-15T03:22:05.661Z,80.90
2023-05-15T03:24:33.559Z,81.30
2023-05-15T03:27:01.299Z,81.00
2023-05-15T03:29:29.093Z,80.90
2023-05-15T03:31:56.909Z,80.70
2023-05-15T03:34:24.734Z,80.80
2023-05-15T03:36:52.553Z,80.80
2023-05-15T03:39:21.697Z,80.90
2023-05-15T03:41:49.824Z,81.00
2023-05-15T03:44:17.779Z,80.50
2023-05-15T03:46:45.686Z,81.10
2023-05-15T03:49:13.558Z,81.10
2023-05-15T03:51:41.457Z,81.20
2023-05-15T03:54:09.423Z,81.30
2023-05-15T03:56:38.618Z,81.60
2023-05-15T03:59:06.553Z,81.60
2023-05-15T04:01:39.313Z,82.30
2023-05-15T04:04:15.488Z,81.70
2023-05-15T04:06:43.835Z,81.70
2023-05-15T04:09:11.672Z,81.80
2023-05-15T04:11:40.918Z,81.80
2023-05-15T04:14:08.770Z,81.80
2023-05-15T04:16:36.683Z,81.30
2023-05-15T04:19:04.728Z,81.20
2023-05-15T04:21:32.763Z,81.30
2023-05-15T04:24:00.579Z,81.30
2023-05-15T04:26:28.406Z,81.40
2023-05-15T04:29:03.995Z,81.50
2023-05-15T04:31:32.973Z,81.70
2023-05-15T04:34:00.873Z,81.60
2023-05-15T04:36:29.176Z,81.60
2023-05-15T04:38:57.022Z,81.30
2023-05-15T04:41:24.877Z,81.30
2023-05-15T04:43:52.801Z,81.10
2023-05-15T04:46:22.138Z,80.90
2023-05-15T04:48:50.732Z,80.70
2023-05-15T04:51:18.589Z,80.50
2023-05-15T04:53:46.748Z,80.60
2023-05-15T04:56:14.577Z,80.70
2023-05-15T04:58:42.372Z,80.90
2023-05-15T05:01:10.499Z,81.10
2023-05-15T05:03:39.758Z,81.10
2023-05-15T05:06:07.967Z,81.10
2023-05-15T05:08:35.788Z,81.00
2023-05-15T05:11:03.895Z,81.00
2023-05-15T05:13:31.697Z,81.10
2023-05-15T05:15:59.676Z,81.10
2023-05-15T05:18:27.521Z,81.60
2023-05-15T05:21:01.909Z,80.90
2023-05-15T05:23:29.902Z,81.10
2023-05-15T05:25:58.232Z,80.70
2023-05-15T05:28:26.220Z,80.70
2023-05-15T05:30:54.249Z,80.70
2023-05-15T05:33:22.055Z,80.90
2023-05-15T05:35:51.703Z,81.00
2023-05-15T05:38:20.848Z,82.20
2023-05-15T05:40:48.707Z,81.30
2023-05-15T05:43:16.936Z,81.40
2023-05-15T05:45:44.844Z,81.30
2023-05-15T05:48:13.369Z,81.60
2023-05-15T05:50:42.323Z,81.50
2023-05-15T05:53:10.576Z,81.50
2023-05-15T05:55:39.738Z,81.60
2023-05-15T05:58:14.782Z,81.50
2023-05-15T06:00:52.267Z,81.50
2023-05-15T06:03:22.237Z,81.20
2023-05-15T06:05:51.305Z,81.10
2023-05-15T06:08:19.574Z,80.60
2023-05-15T06:10:52.123Z,80.70
2023-05-15T06:13:20.035Z,80.50
2023-05-15T06:15:47.973Z,80.80
2023-05-15T06:18:16.083Z,80.50
2023-05-15T06:20:44.018Z,80.50
2023-05-15T06:23:11.833Z,80.30
2023-05-15T06:25:40.080Z,80.30
2023-05-15T06:28:09.385Z,80.60
2023-05-15T06:30:37.317Z,80.80
2023-05-15T06:33:05.375Z,80.50
2023-05-15T06:35:33.394Z,80.90
2023-05-15T06:38:01.917Z,80.70
2023-05-15T06:40:29.779Z,80.70
2023-05-15T06:42:58.652Z,80.50
2023-05-15T06:45:28.352Z,80.30
2023-05-15T06:47:57.495Z,79.80
2023-05-15T06:50:27.051Z,79.30
2023-05-15T06:52:54.925Z,78.70
2023-05-15T06:55:22.992Z,78.50
2023-05-15T06:57:51.294Z,78.20
2023-05-15T07:00:19.720Z,77.90
2023-05-15T07:02:49.217Z,77.70
2023-05-15T07:05:17.825Z,77.40
2023-05-15T07:07:46.063Z,77.50
2023-05-15T07:10:14.147Z,77.30
2023-05-15T07:12:41.974Z,77.10
2023-05-15T07:15:10.641Z,77.10
2023-05-15T07:17:38.658Z,76.80
2023-05-15T07:20:09.110Z,76.60
2023-05-15T07:22:44.643Z,76.00
2023-05-15T07:25:20.236Z,75.50
2023-05-15T07:27:48.760Z,74.70
2023-05-15T07:30:17.251Z,75.20
2023-05-15T07:32:45.061Z,75.00
2023-05-15T07:35:14.930Z,75.00
2023-05-15T07:37:42.799Z,74.70
2023-05-15T07:40:11.545Z,74.40
2023-05-15T07:42:41.814Z,74.70
2023-05-15T07:45:10.862Z,74.20
2023-05-15T07:47:38.791Z,73.90
2023-05-15T07:50:07.579Z,73.60
2023-05-15T07:52:36.761Z,73.20
2023-05-15T07:55:05.024Z,73.30
2023-05-15T07:57:32.908Z,73.20
2023-05-15T08:00:02.438Z,72.50
2023-05-15T08:02:36.992Z,72.40
2023-05-15T08:05:05.649Z,71.90
2023-05-15T08:07:35.527Z,72.20
2023-05-15T08:10:06.070Z,72.30
2023-05-15T08:12:36.576Z,71.40
2023-05-15T08:15:05.121Z,71.20
2023-05-15T08:17:32.948Z,71.40
2023-05-15T08:20:00.920Z,71.20
2023-05-15T08:22:30.341Z,70.50
2023-05-15T08:24:59.514Z,70.30
2023-05-15T08:27:28.677Z,70.10
2023-05-15T08:29:56.624Z,69.10
2023-05-15T08:32:24.490Z,68.80
2023-05-15T08:34:52.336Z,67.50
2023-05-15T08:37:20.177Z,67.50
2023-05-15T08:39:48.006Z,65.70
2023-05-15T08:42:21.955Z,65.50
2023-05-15T08:44:52.090Z,66.00
2023-05-15T08:47:20.632Z,65.80
2023-05-15T08:49:55.216Z,65.90
2023-05-15T08:52:23.717Z,65.70
2023-05-15T08:54:51.812Z,65.50
2023-05-15T08:57:19.966Z,65.40
2023-05-15T08:59:47.832Z,64.20
2023-05-15T09:02:18.016Z,64.60
2023-05-15T09:04:46.044Z,63.60
2023-05-15T09:07:15.171Z,64.40
2023-05-15T09:09:45.178Z,64.50
2023-05-15T09:12:17.051Z,64.30
2023-05-15T09:14:45.258Z,64.00
2023-05-15T09:17:13.671Z,64.20
2023-05-15T09:19:43.804Z,64.20
2023-05-15T09:22:23.457Z,63.90
2023-05-15T09:24:53.093Z,63.30
2023-05-15T09:27:21.470Z,62.90
2023-05-15T09:29:51.651Z,63.10
2023-05-15T09:32:19.839Z,62.60
2023-05-15T09:34:49.693Z,62.80
2023-05-15T09:37:29.798Z,62.50
2023-05-15T09:40:09.090Z,62.80
2023-05-15T09:42:37.039Z,63.70
2023-05-15T09:45:05.831Z,63.30
2023-05-15T09:47:34.800Z,64.10
2023-05-15T09:50:04.342Z,64.40
2023-05-15T09:52:33.017Z,64.20
2023-05-15T09:55:00.903Z,64.80
2023-05-15T09:57:28.694Z,65.10
2023-05-15T09:59:57.279Z,65.10
2023-05-15T10:02:28.224Z,64.60
2023-05-15T10:04:57.641Z,64.60
2023-05-15T10:07:34.555Z,63.50
2023-05-15T10:10:03.956Z,63.20
2023-05-15T10:12:32.620Z,63.40
2023-05-15T10:15:01.974Z,63.00
2023-05-15T10:17:32.588Z,62.80
2023-05-15T10:20:02.630Z,63.00
2023-05-15T10:22:38.059Z,62.70
2023-05-15T10:25:14.354Z,62.90
2023-05-15T10:27:43.583Z,63.10
2023-05-15T10:30:12.678Z,63.30
2023-05-15T10:32:41.917Z,63.50
2023-05-15T10:35:12.601Z,63.80
2023-05-15T10:37:41.867Z,63.70
2023-05-15T10:40:11.638Z,64.10
2023-05-15T10:42:42.442Z,64.60
2023-05-15T10:45:11.621Z,64.10
2023-05-15T10:47:40.263Z,64.60
2023-05-15T10:50:09.200Z,64.90
2023-05-15T10:52:38.418Z,65.20
2023-05-15T10:55:10.262Z,65.70
2023-05-15T10:57:38.974Z,65.90
2023-05-15T11:00:26.244Z,65.80
2023-05-15T11:02:57.299Z,66.40
2023-05-15T11:05:26.017Z,66.30
2023-05-15T11:08:27.383Z,66.50
2023-05-15T11:10:56.632Z,66.60
2023-05-15T11:13:24.581Z,66.70
2023-05-15T11:15:52.670Z,66.90
2023-05-15T11:18:21.816Z,67.50
2023-05-15T11:21:10.864Z,67.50
2023-05-15T11:23:42.775Z,67.80
2023-05-15T11:26:14.906Z,67.80
2023-05-15T11:28:45.084Z,67.80
2023-05-15T11:31:13.193Z,67.90
2023-05-15T11:33:41.639Z,67.90
2023-05-15T11:36:09.617Z,68.10
2023-05-15T11:38:41.138Z,68.10
2023-05-15T11:41:21.981Z,68.40
2023-05-15T11:43:51.154Z,68.50
2023-05-15T11:46:19.081Z,68.60
2023-05-15T11:48:48.998Z,69.20
2023-05-15T11:51:19.663Z,69.00
2023-05-15T11:53:50.405Z,69.20
2023-05-15T11:56:22.820Z,69.10
2023-05-15T11:58:51.984Z,69.10
2023-05-15T12:01:19.905Z,69.10
2023-05-15T12:03:49.734Z,68.90
2023-05-15T12:06:18.286Z,69.20
2023-05-15T12:08:52.597Z,69.50
2023-05-15T12:11:25.458Z,69.40
2023-05-15T12:13:54.576Z,69.60
2023-05-15T12:16:25.707Z,69.80
2023-05-15T12:18:53.668Z,70.20
2023-05-15T12:21:21.860Z,70.10
2023-05-15T12:24:06.441Z,70.00
2023-05-15T12:26:37.442Z,69.30
2023-05-15T12:29:05.980Z,69.10
2023-05-15T12:31:35.565Z,68.90
2023-05-15T12:34:03.557Z,69.10
2023-05-15T12:36:31.982Z,69.10
2023-05-15T12:39:05.642Z,69.30
2023-05-15T12:41:33.637Z,69.20
2023-05-15T12:44:02.860Z,68.80
2023-05-15T12:46:32.403Z,68.70
2023-05-15T12:49:00.719Z,68.40
2023-05-15T12:51:29.921Z,68.20
2023-05-15T12:53:58.834Z,67.80
2023-05-15T12:56:27.103Z,68.30
2023-05-15T12:58:56.725Z,67.70
2023-05-15T13:01:26.783Z,67.60
2023-05-15T13:03:55.173Z,66.60
2023-05-15T13:06:24.083Z,65.60
2023-05-15T13:08:52.017Z,65.40
2023-05-15T13:11:19.969Z,63.90
2023-05-15T13:13:49.699Z,64.40
2023-05-15T13:16:22.404Z,64.50
2023-05-15T13:18:52.368Z,63.60
2023-05-15T13:21:20.377Z,63.90
2023-05-15T13:23:48.633Z,63.30
2023-05-15T13:26:16.582Z,63.20
2023-05-15T13:28:44.501Z,63.30
2023-05-15T13:31:12.734Z,63.20
2023-05-15T13:33:40.606Z,64.50
2023-05-15T13:36:10.584Z,64.10
2023-05-15T13:38:38.511Z,63.00
2023-05-15T13:41:06.519Z,63.30
2023-05-15T13:43:34.380Z,63.80
2023-05-15T13:46:02.202Z,64.20
2023-05-15T13:48:30.093Z,64.00
2023-05-15T13:50:57.890Z,64.00
2023-05-15T13:53:27.186Z,64.00
2023-05-15T13:55:54.985Z,63.10
2023-05-15T13:58:26.310Z,63.30
2023-05-15T14:00:54.246Z,63.10
2023-05-15T14:03:22.173Z,63.00
2023-05-15T14:05:51.252Z,64.10
2023-05-15T14:08:19.069Z,63.40
2023-05-15T14:10:48.637Z,63.60
2023-05-15T14:13:16.411Z,64.30
2023-05-15T14:15:44.208Z,64.50
2023-05-15T14:18:12.015Z,64.70
2023-05-15T14:20:39.897Z,65.30
2023-05-15T14:23:07.742Z,64.30
2023-05-15T14:25:35.728Z,64.20
2023-05-15T14:28:04.890Z,65.00
2023-05-15T14:30:32.756Z,64.20
2023-05-15T14:33:01.224Z,64.40
2023-05-15T14:35:29.069Z,63.90
2023-05-15T14:37:57.624Z,63.40
2023-05-15T14:40:25.715Z,63.00
2023-05-15T14:42:53.770Z,62.40
2023-05-15T14:45:23.315Z,62.90
2023-05-15T14:47:51.311Z,62.90
2023-05-15T14:50:19.309Z,63.30
2023-05-15T14:52:47.692Z,63.10
2023-05-15T14:55:16.159Z,63.10
2023-05-15T14:57:49.081Z,63.20
2023-05-15T15:00:18.032Z,63.20
2023-05-15T15:02:47.693Z,62.90
2023-05-15T15:05:15.672Z,63.00
2023-05-15T15:08:01.490Z,63.30
2023-05-15T15:10:29.562Z,63.50
2023-05-15T15:12:57.601Z,63.90
2023-05-15T15:15:26.285Z,64.10
2023-05-15T15:17:56.561Z,64.20
2023-05-15T15:20:26.102Z,64.50
2023-05-15T15:22:54.554Z,64.90
2023-05-15T15:25:22.972Z,64.90
2023-05-15T15:27:51.201Z,65.20
2023-05-15T15:30:19.038Z,65.00
2023-05-15T15:32:46.971Z,64.80
2023-05-15T15:35:16.401Z,65.00
2023-05-15T15:37:44.198Z,65.10
2023-05-15T15:40:12.379Z,65.00
2023-05-15T15:42:40.432Z,65.20
2023-05-15T15:45:09.089Z,65.50
2023-05-15T15:47:37.033Z,65.70
2023-05-15T15:50:05.452Z,65.80
2023-05-15T15:52:34.609Z,66.10
2023-05-15T15:55:02.421Z,66.30
2023-05-15T15:57:31.184Z,66.30
2023-05-15T15:59:59.029Z,66.00
2023-05-15T16:02:28.470Z,65.90
2023-05-15T16:04:56.330Z,66.30
2023-05-15T16:07:24.287Z,66.20
2023-05-15T16:10:04.129Z,66.30
2023-05-15T16:12:39.947Z,66.60
2023-05-15T16:15:21.805Z,66.70
2023-05-15T16:17:53.727Z,66.80
2023-05-15T16:20:22.624Z,67.20
2023-05-15T16:22:51.010Z,67.00
2023-05-15T16:25:20.197Z,67.10
2023-05-15T16:27:48.176Z,67.10
2023-05-15T16:30:16.541Z,68.30
2023-05-15T16:32:44.472Z,67.30
2023-05-15T16:35:12.536Z,67.10
2023-05-15T16:37:40.419Z,67.60
2023-05-15T16:40:09.731Z,67.10
2023-05-15T16:42:39.590Z,67.30
2023-05-15T16:45:09.207Z,67.30
2023-05-15T16:47:39.041Z,67.50
2023-05-15T16:50:08.129Z,67.60
2023-05-15T16:52:36.112Z,67.80
2023-05-15T16:55:04.123Z,68.10
2023-05-15T16:57:31.932Z,68.10
2023-05-15T17:00:01.130Z,68.40
2023-05-15T17:02:29.671Z,68.60
2023-05-15T17:04:57.628Z,68.60
2023-05-15T17:07:25.954Z,68.30
2023-05-15T17:09:54.865Z,68.30
2023-05-15T17:12:23.604Z,68.00
2023-05-15T17:14:51.433Z,67.80
2023-05-15T17:17:20.624Z,67.70
2023-05-15T17:19:48.852Z,67.70
2023-05-15T17:22:16.723Z,67.50
2023-05-15T17:24:51.577Z,67.30
2023-05-15T17:27:20.681Z,67.20
2023-05-15T17:29:48.770Z,66.90
2023-05-15T17:32:17.517Z,66.90
2023-05-15T17:34:46.931Z,67.10
2023-05-15T17:37:15.448Z,67.50
2023-05-15T17:39:43.452Z,67.60
2023-05-15T17:42:12.756Z,67.60
2023-05-15T17:44:40.630Z,67.80
2023-05-15T17:47:09.962Z,67.90
2023-05-15T17:49:38.854Z,68.10
2023-05-15T17:52:08.710Z,68.30
2023-05-15T17:54:36.524Z,68.40
2023-05-15T17:57:04.775Z,68.90
2023-05-15T17:59:33.113Z,69.50
2023-05-15T18:02:01.140Z,69.60
2023-05-15T18:04:28.969Z,69.60
2023-05-15T18:06:56.752Z,69.50
2023-05-15T18:09:25.897Z,70.10
2023-05-15T18:11:53.886Z,69.30
2023-05-15T18:14:25.094Z,68.80
2023-05-15T18:16:52.992Z,68.40
2023-05-15T18:19:20.937Z,68.90
2023-05-15T18:21:48.877Z,69.20
2023-05-15T18:24:16.685Z,69.20
2023-05-15T18:26:46.019Z,69.10
2023-05-15T18:29:16.684Z,69.10
2023-05-15T18:31:44.621Z,68.90
2023-05-15T18:34:12.901Z,69.30
2023-05-15T18:36:40.815Z,69.40
2023-05-15T18:39:08.658Z,69.80
2023-05-15T18:41:36.527Z,69.90
2023-05-15T18:44:06.030Z,69.60
2023-05-15T18:46:34.458Z,70.00
2023-05-15T18:49:02.378Z,70.20
2023-05-15T18:51:31.182Z,70.60
2023-05-15T18:53:59.010Z,71.10
2023-05-15T18:56:26.783Z,71.10
2023-05-15T18:58:55.357Z,72.10
2023-05-15T19:01:24.627Z,72.30
2023-05-15T19:03:52.503Z,72.20
2023-05-15T19:06:20.704Z,72.00
2023-05-15T19:08:49.430Z,71.80
2023-05-15T19:11:18.072Z,71.70
2023-05-15T19:13:45.884Z,71.80
2023-05-15T19:16:13.789Z,71.60
2023-05-15T19:18:43.067Z,71.70
2023-05-15T19:21:11.566Z,71.90
2023-05-15T19:23:39.417Z,72.20
2023-05-15T19:26:07.278Z,72.40
2023-05-15T19:28:35.707Z,72.30
2023-05-15T19:31:04.270Z,72.80
2023-05-15T19:33:32.396Z,72.70
2023-05-15T19:36:01.814Z,73.10
2023-05-15T19:38:29.786Z,74.10
2023-05-15T19:40:57.651Z,73.40
2023-05-15T19:43:25.474Z,73.50
2023-05-15T19:45:53.282Z,74.10
2023-05-15T19:48:21.140Z,74.70
2023-05-15T19:50:49.009Z,75.00
2023-05-15T19:53:18.197Z,74.90
2023-05-15T19:55:46.440Z,75.10
2023-05-15T19:58:14.331Z,75.90
2023-05-15T20:00:42.336Z,75.70
2023-05-15T20:03:10.453Z,75.40
2023-05-15T20:05:41.008Z,75.10
2023-05-15T20:08:08.810Z,75.10
2023-05-15T20:10:38.158Z,75.00
2023-05-15T20:13:05.988Z,74.80
2023-05-15T20:15:35.181Z,74.60
2023-05-15T20:18:03.080Z,74.80
2023-05-15T20:20:31.111Z,75.30
2023-05-15T20:22:59.420Z,75.60
2023-05-15T20:25:28.918Z,75.70
2023-05-15T20:27:58.830Z,76.10
2023-05-15T20:30:28.417Z,76.80
2023-05-15T20:32:56.554Z,77.00
2023-05-15T20:35:25.099Z,77.20
2023-05-15T20:37:52.981Z,77.60
2023-05-15T20:40:22.870Z,77.80
2023-05-15T20:42:51.251Z,78.30
2023-05-15T20:45:20.708Z,78.40
2023-05-15T20:47:48.825Z,78.80
2023-05-15T20:50:17.111Z,78.60
2023-05-15T20:52:45.846Z,79.00
2023-05-15T20:55:15.985Z,79.00
2023-05-15T20:57:44.564Z,79.40
2023-05-15T21:00:15.535Z,79.50
2023-05-15T21:02:45.920Z,79.20
2023-05-15T21:05:13.839Z,79.30
2023-05-15T21:07:42.011Z,78.70
2023-05-15T21:10:10.753Z,78.80
2023-05-15T21:12:39.647Z,78.60
2023-05-15T21:15:08.948Z,78.40
2023-05-15T21:17:37.007Z,78.60
2023-05-15T21:20:07.443Z,78.70
2023-05-15T21:22:35.704Z,79.00
2023-05-15T21:25:04.149Z,80.40
2023-05-15T21:27:32.084Z,78.90
2023-05-15T21:29:59.921Z,78.90
2023-05-15T21:32:27.815Z,79.20
2023-05-15T21:34:55.755Z,79.10
2023-05-15T21:37:25.044Z,79.00
2023-05-15T21:39:52.844Z,79.10
2023-05-15T21:42:20.623Z,78.90
2023-05-15T21:44:48.785Z,78.80
2023-05-15T21:47:16.767Z,78.50
2023-05-15T21:49:44.672Z,78.60
2023-05-15T21:52:12.801Z,78.60
2023-05-15T21:54:43.743Z,77.90
2023-05-15T21:57:11.852Z,78.30
2023-05-15T21:59:39.631Z,78.40
2023-05-15T22:02:07.950Z,78.00
2023-05-15T22:04:35.809Z,77.90
2023-05-15T22:07:03.649Z,77.50
2023-05-15T22:09:31.454Z,77.40
2023-05-15T22:12:00.594Z,77.60
2023-05-15T22:14:28.407Z,77.60
2023-05-15T22:16:56.241Z,77.40
2023-05-15T22:19:32.747Z,77.00
2023-05-15T22:22:01.889Z,76.90
2023-05-15T22:24:29.771Z,76.70
2023-05-15T22:26:57.568Z,76.50
2023-05-15T22:29:26.803Z,76.30
2023-05-15T22:31:54.688Z,77.50
2023-05-15T22:34:22.521Z,76.20
2023-05-15T22:36:50.764Z,76.10
2023-05-15T22:39:18.529Z,76.20
2023-05-15T22:41:47.725Z,76.40
2023-05-15T22:44:15.987Z,76.00
2023-05-15T22:46:45.145Z,76.00
2023-05-15T22:49:23.260Z,77.00
2023-05-15T22:51:51.327Z,76.10
2023-05-15T22:54:21.600Z,76.10
2023-05-15T22:56:50.826Z,76.30
2023-05-15T22:59:19.365Z,76.10
2023-05-15T23:01:50.022Z,76.10
2023-05-15T23:04:18.557Z,75.90
2023-05-15T23:06:46.716Z,75.60
2023-05-15T23:09:14.508Z,76.10
2023-05-15T23:11:42.335Z,75.30
2023-05-15T23:14:11.949Z,75.30
2023-05-15T23:16:39.815Z,75.00
2023-05-15T23:19:09.507Z,75.20
2023-05-15T23:21:37.895Z,75.30
2023-05-15T23:24:06.215Z,75.10
2023-05-15T23:26:34.096Z,75.10
2023-05-15T23:29:01.924Z,74.70
2023-05-15T23:31:29.798Z,74.60
2023-05-15T23:33:57.583Z,74.10
2023-05-15T23:36:26.681Z,73.90
2023-05-15T23:38:54.451Z,73.60
2023-05-15T23:41:22.965Z,73.60
2023-05-15T23:43:51.137Z,73.80
2023-05-15T23:46:19.147Z,73.70
2023-05-15T23:48:46.924Z,73.90
2023-05-15T23:51:14.710Z,73.80
2023-05-15T23:53:43.845Z,74.00
2023-05-15T23:56:11.626Z,74.00
2023-05-15T23:58:39.640Z,74.20
